Time;durP1;ratioP1;P1;durP2;ratioP2;P2;SDS_P1;SDS_P2;PMS_P1;PMS_P2;Temp;Humidity;BMP_temperature;BMP_pressure;BME280_temperature;BME280_humidity;BME280_pressure;Samples;Min_cycle;Max_cycle;Signal;HPM_P1;HPM_P2
2022/01/20 00:01:58;;;;;;;23.38;11.00;;;8.00;87.30;;;;;;5035900;28;20033;-80
2022/01/20 00:04:51;;;;;;;22.43;11.27;;;8.00;87.40;;;;;;5037227;28;20057;-80
2022/01/20 00:31:25;;;;;;;21.13;10.95;;;7.70;87.60;;;;;;5040761;28;20032;-80
2022/01/20 00:39:19;;;;;;;24.48;11.63;;;7.60;87.10;;;;;;5057267;28;20060;-80
2022/01/20 00:41:44;;;;;;;23.17;10.73;;;7.50;87.20;;;;;;5042088;28;20030;-80
2022/01/20 00:44:10;;;;;;;22.83;11.63;;;7.50;87.30;;;;;;5056761;28;20096;-80
2022/01/20 00:46:35;;;;;;;22.38;11.30;;;7.40;87.70;;;;;;5047509;28;20105;-80
2022/01/20 00:49:01;;;;;;;24.77;10.73;;;7.40;87.30;;;;;;5036988;28;20041;-80
2022/01/20 00:51:27;;;;;;;25.17;10.38;;;7.30;87.40;;;;;;5036894;28;20029;-80
2022/01/20 00:53:54;;;;;;;25.08;10.32;;;7.30;87.30;;;;;;5044286;28;20051;-79
2022/01/20 00:56:20;;;;;;;24.83;11.15;;;7.30;87.50;;;;;;5055440;28;20120;-80
2022/01/20 00:58:45;;;;;;;22.63;10.85;;;7.20;87.70;;;;;;5053300;28;20029;-80
2022/01/20 01:01:11;;;;;;;20.90;9.75;;;7.30;87.30;;;;;;5039350;28;20129;-80
2022/01/20 01:03:37;;;;;;;22.67;10.27;;;7.30;87.60;;;;;;5054871;28;20061;-80
2022/01/20 01:08:48;;;;;;;23.73;10.45;;;7.30;87.10;;;;;;5045509;28;20042;-80
2022/01/20 01:11:14;;;;;;;22.30;9.80;;;7.30;87.30;;;;;;5036577;28;20032;-80
2022/01/20 01:13:40;;;;;;;22.30;9.82;;;7.30;87.20;;;;;;5034950;28;20037;-80
2022/01/20 01:16:09;;;;;;;21.10;10.23;;;7.30;86.70;;;;;;5036386;28;20033;-79
2022/01/20 01:21:40;;;;;;;20.23;9.63;;;7.30;86.80;;;;;;5054899;28;20036;-80
2022/01/20 01:24:06;;;;;;;18.88;8.43;;;7.30;86.70;;;;;;5056376;28;20029;-80
2022/01/20 01:26:32;;;;;;;18.13;8.90;;;7.20;86.90;;;;;;5054898;28;20031;-80
2022/01/20 01:28:59;;;;;;;23.95;9.02;;;7.30;87.20;;;;;;5056196;28;20051;-80
2022/01/20 01:31:38;;;;;;;11.98;7.93;;;7.30;86.90;;;;;;5040806;28;20052;-80
2022/01/20 01:34:10;;;;;;;24.25;8.45;;;7.30;86.90;;;;;;5040477;28;20057;-80
2022/01/20 01:37:03;;;;;;;21.42;9.38;;;7.40;86.80;;;;;;5054734;28;20025;-80
2022/01/20 01:39:29;;;;;;;18.98;9.15;;;7.50;86.70;;;;;;5048814;28;20112;-80
2022/01/20 01:41:56;;;;;;;23.38;8.98;;;7.50;86.70;;;;;;5038706;28;20063;-80
2022/01/20 01:44:26;;;;;;;16.88;8.27;;;7.60;86.40;;;;;;5049289;28;20035;-80
2022/01/20 01:46:54;;;;;;;15.80;7.88;;;7.50;85.50;;;;;;5036320;28;20025;-80
2022/01/20 01:49:20;;;;;;;17.92;7.13;;;7.60;86.10;;;;;;5035694;28;20087;-80
2022/01/20 01:51:47;;;;;;;15.15;6.32;;;7.70;85.70;;;;;;5035781;28;20025;-80
2022/01/20 01:54:14;;;;;;;16.25;7.00;;;7.70;85.30;;;;;;5034565;28;20868;-80
2022/01/20 01:56:41;;;;;;;21.48;7.85;;;7.70;85.40;;;;;;5035425;28;20033;-80
2022/01/20 01:59:07;;;;;;;12.23;6.00;;;7.60;85.40;;;;;;5035703;28;20036;-80
2022/01/20 02:01:36;;;;;;;15.00;5.97;;;7.50;85.40;;;;;;5034464;28;20411;-80
2022/01/20 02:04:13;;;;;;;14.85;6.00;;;7.50;85.40;;;;;;5035695;28;20072;-80
2022/01/20 02:19:59;;;;;;;10.93;4.05;;;7.20;85.40;;;;;;5046645;28;20047;-80
2022/01/20 02:22:25;;;;;;;10.82;3.95;;;7.20;85.60;;;;;;5055344;28;20391;-80
2022/01/20 02:24:51;;;;;;;12.02;3.38;;;7.10;86.00;;;;;;5052650;28;20075;-80
2022/01/20 02:27:17;;;;;;;9.63;3.38;;;7.00;85.60;;;;;;5053911;28;20025;-80
2022/01/20 02:29:44;;;;;;;12.13;3.20;;;6.90;85.80;;;;;;5054973;28;20080;-80
2022/01/20 02:32:11;;;;;;;10.00;3.70;;;6.90;85.90;;;;;;5054428;28;20491;-79
2022/01/20 02:34:37;;;;;;;7.28;3.28;;;6.80;86.10;;;;;;5035404;28;20598;-80
2022/01/20 02:37:08;;;;;;;9.43;3.17;;;6.80;86.00;;;;;;5035182;28;20064;-79
2022/01/20 02:44:54;;;;;;;7.75;2.95;;;6.70;86.10;;;;;;5055053;28;20036;-79
2022/01/20 02:47:23;;;;;;;8.70;2.88;;;6.70;86.40;;;;;;5054725;28;20021;-80
2022/01/20 02:49:50;;;;;;;8.73;3.03;;;6.60;85.80;;;;;;5054616;28;20057;-80
2022/01/20 02:52:16;;;;;;;12.57;2.83;;;6.70;86.10;;;;;;5042927;28;20025;-80
2022/01/20 02:54:43;;;;;;;8.43;2.78;;;6.70;86.00;;;;;;5035066;28;20041;-79
2022/01/20 02:57:09;;;;;;;5.93;2.83;;;6.60;85.60;;;;;;5049176;28;20021;-80
2022/01/20 02:59:34;;;;;;;11.00;3.20;;;6.50;86.10;;;;;;5054876;28;20036;-79
2022/01/20 03:02:02;;;;;;;8.52;2.40;;;6.50;86.20;;;;;;5053556;28;20071;-80
2022/01/20 03:04:27;;;;;;;7.75;2.35;;;6.40;86.20;;;;;;5046522;28;20103;-79
2022/01/20 03:06:53;;;;;;;10.55;2.80;;;6.30;86.50;;;;;;5034881;28;20025;-80
2022/01/20 03:09:20;;;;;;;5.22;2.50;;;6.40;86.20;;;;;;5034915;28;20026;-80
2022/01/20 03:11:46;;;;;;;8.57;2.90;;;6.40;85.80;;;;;;5034706;28;20087;-79
2022/01/20 03:14:14;;;;;;;8.40;3.00;;;6.40;86.40;;;;;;5033376;28;20037;-80
2022/01/20 03:16:40;;;;;;;9.70;2.88;;;6.30;85.80;;;;;;5034796;28;20254;-80
2022/01/20 03:19:05;;;;;;;8.80;2.45;;;6.30;86.30;;;;;;5037611;28;20475;-80
2022/01/20 03:21:31;;;;;;;10.73;3.03;;;6.40;86.20;;;;;;5054507;28;20135;-80
2022/01/20 03:23:57;;;;;;;6.35;2.75;;;6.30;85.50;;;;;;5054402;28;20029;-79
2022/01/20 03:26:22;;;;;;;10.10;3.45;;;6.30;85.80;;;;;;5053117;28;20115;-79
2022/01/20 03:28:48;;;;;;;6.90;2.90;;;6.30;85.80;;;;;;5039107;28;20032;-80
2022/01/20 03:31:14;;;;;;;11.80;2.63;;;6.30;85.70;;;;;;5033272;28;20117;-79
2022/01/20 03:33:40;;;;;;;7.97;3.03;;;6.20;85.90;;;;;;5032989;28;20057;-79
2022/01/20 03:36:05;;;;;;;5.65;2.65;;;6.30;85.90;;;;;;5033464;28;20630;-80
2022/01/20 03:38:31;;;;;;;5.60;2.50;;;6.20;85.40;;;;;;5034559;28;20380;-80
2022/01/20 03:40:57;;;;;;;10.25;2.80;;;6.20;85.60;;;;;;5032928;28;20392;-80
2022/01/20 03:43:22;;;;;;;15.70;3.40;;;6.20;85.70;;;;;;5049285;28;20033;-79
2022/01/20 03:45:54;;;;;;;9.88;3.00;;;6.10;85.60;;;;;;5052306;28;20602;-79
2022/01/20 03:48:20;;;;;;;9.82;2.72;;;6.10;85.90;;;;;;5034493;28;20098;-80
2022/01/20 03:51:01;;;;;;;9.30;2.70;;;6.00;85.80;;;;;;5034512;28;20041;-79
2022/01/20 03:53:29;;;;;;;12.68;2.53;;;5.90;86.30;;;;;;5051085;28;20484;-80
2022/01/20 03:55:56;;;;;;;5.03;2.63;;;6.00;86.20;;;;;;5042976;28;20032;-80
2022/01/20 03:58:22;;;;;;;6.38;2.60;;;6.10;86.20;;;;;;5040130;28;20051;-79
2022/01/20 04:00:47;;;;;;;16.02;3.45;;;6.10;85.50;;;;;;5046859;28;20132;-80
2022/01/20 04:03:15;;;;;;;11.82;3.03;;;6.20;85.20;;;;;;5036595;28;20024;-80
2022/01/20 04:05:56;;;;;;;15.63;2.92;;;6.20;85.00;;;;;;5050813;28;20414;-79
2022/01/20 04:08:23;;;;;;;7.97;2.40;;;6.20;84.30;;;;;;5049620;28;20026;-79
2022/01/20 04:10:49;;;;;;;13.93;3.08;;;6.20;84.50;;;;;;5037896;28;20426;-80
2022/01/20 04:13:16;;;;;;;11.25;2.60;;;6.20;84.50;;;;;;5037596;28;20045;-80
2022/01/20 04:15:42;;;;;;;10.07;3.33;;;6.20;84.00;;;;;;5037568;28;20506;-79
2022/01/20 04:18:11;;;;;;;12.52;2.67;;;6.20;84.10;;;;;;5036487;28;20025;-80
2022/01/20 04:20:37;;;;;;;10.57;3.15;;;6.20;84.00;;;;;;5054189;28;20033;-79
2022/01/20 04:23:03;;;;;;;13.80;2.65;;;6.20;84.10;;;;;;5043979;28;20136;-79
2022/01/20 04:25:28;;;;;;;8.15;2.67;;;6.10;83.70;;;;;;5037455;28;20392;-79
2022/01/20 04:27:54;;;;;;;8.80;2.90;;;6.10;83.50;;;;;;5037524;28;20179;-79
2022/01/20 04:30:20;;;;;;;4.75;2.20;;;6.10;83.80;;;;;;5035933;28;20033;-80
2022/01/20 04:32:45;;;;;;;9.90;2.53;;;6.00;83.60;;;;;;5035604;28;20053;-79
2022/01/20 04:35:11;;;;;;;6.53;2.50;;;6.00;83.80;;;;;;5037266;28;20044;-79
2022/01/20 04:37:37;;;;;;;6.78;2.67;;;5.90;83.40;;;;;;5043564;28;20028;-79
2022/01/20 04:40:04;;;;;;;8.00;2.55;;;5.90;83.90;;;;;;5055839;28;20095;-79
2022/01/20 04:42:33;;;;;;;10.05;2.47;;;5.90;84.00;;;;;;5057048;28;20028;-79
2022/01/20 04:45:04;;;;;;;6.63;2.45;;;5.90;83.80;;;;;;5056959;28;20021;-79
2022/01/20 04:58:08;;;;;;;9.82;2.88;;;5.70;83.30;;;;;;5057196;28;20056;-79
2022/01/20 05:00:34;;;;;;;8.75;2.80;;;5.70;83.70;;;;;;5041768;28;20459;-80
2022/01/20 05:03:02;;;;;;;8.00;2.40;;;5.70;83.80;;;;;;5036812;28;20494;-79
2022/01/20 05:05:27;;;;;;;7.00;2.50;;;5.70;83.90;;;;;;5036364;28;20025;-79
2022/01/20 05:07:53;;;;;;;9.45;3.22;;;5.70;84.00;;;;;;5036605;28;20027;-80
2022/01/20 05:10:18;;;;;;;8.32;3.10;;;5.70;83.70;;;;;;5036407;28;20396;-79
2022/01/20 05:15:16;;;;;;;7.43;2.90;;;5.70;83.90;;;;;;5036578;28;20044;-80
2022/01/20 05:17:41;;;;;;;6.28;2.55;;;5.70;83.80;;;;;;5035195;28;20025;-79
2022/01/20 05:20:08;;;;;;;8.35;3.08;;;5.60;84.00;;;;;;5047728;28;20033;-84
2022/01/20 05:22:33;;;;;;;13.40;3.08;;;5.60;83.90;;;;;;5055135;28;20120;-79
2022/01/20 05:24:59;;;;;;;8.93;2.92;;;5.60;83.50;;;;;;5042107;28;20053;-79
2022/01/20 05:27:25;;;;;;;12.23;3.30;;;5.50;84.00;;;;;;5036703;28;20052;-79
2022/01/20 05:29:50;;;;;;;9.82;3.72;;;5.50;84.00;;;;;;5035927;28;20026;-80
2022/01/20 05:32:16;;;;;;;7.97;2.75;;;5.40;84.00;;;;;;5036058;28;20045;-81
2022/01/20 05:34:41;;;;;;;11.40;2.60;;;5.40;84.30;;;;;;5036256;28;20029;-80
2022/01/20 05:37:07;;;;;;;11.13;3.22;;;5.40;84.30;;;;;;5034666;28;20067;-80
2022/01/20 05:39:33;;;;;;;9.18;2.47;;;5.30;84.50;;;;;;5036120;28;20029;-80
2022/01/20 05:41:58;;;;;;;8.30;2.85;;;5.20;84.60;;;;;;5039512;28;20029;-80
2022/01/20 05:44:24;;;;;;;9.77;2.83;;;5.20;85.00;;;;;;5055878;28;20487;-80
2022/01/20 05:46:52;;;;;;;10.82;2.78;;;5.20;85.10;;;;;;5051178;28;20064;-80
2022/01/20 05:49:23;;;;;;;14.73;2.92;;;5.30;84.80;;;;;;5035603;28;20033;-79
2022/01/20 05:51:54;;;;;;;12.70;2.75;;;5.20;85.00;;;;;;5034472;28;20022;-80
2022/01/20 05:54:21;;;;;;;6.60;2.63;;;5.20;84.80;;;;;;5036226;28;20033;-81
2022/01/20 05:56:47;;;;;;;8.13;3.30;;;5.10;85.00;;;;;;5044964;28;20013;-80
2022/01/20 05:59:13;;;;;;;8.00;3.15;;;5.10;85.10;;;;;;5055571;28;20119;-80
2022/01/20 06:01:39;;;;;;;9.27;2.88;;;5.20;85.30;;;;;;5055579;28;20036;-80
2022/01/20 06:04:09;;;;;;;14.80;3.17;;;5.20;85.30;;;;;;5047380;28;20391;-80
2022/01/20 06:06:36;;;;;;;13.27;3.25;;;5.30;84.70;;;;;;5037783;28;20025;-80
2022/01/20 06:09:04;;;;;;;6.88;3.25;;;5.30;84.50;;;;;;5053735;28;20025;-80
2022/01/20 06:11:30;;;;;;;10.02;3.55;;;5.30;83.80;;;;;;5048150;28;20709;-80
2022/01/20 06:13:57;;;;;;;9.55;3.22;;;5.30;84.00;;;;;;5035481;28;20434;-77
2022/01/20 06:16:23;;;;;;;6.85;3.15;;;5.20;84.30;;;;;;5033369;28;20030;-77
2022/01/20 06:18:49;;;;;;;10.30;3.78;;;5.10;84.80;;;;;;5035805;28;20029;-76
2022/01/20 06:21:15;;;;;;;13.05;5.20;;;5.00;85.00;;;;;;5054277;28;20102;-76
2022/01/20 06:23:40;;;;;;;8.68;3.80;;;5.00;85.10;;;;;;5050174;28;20025;-77
2022/01/20 10:08:35;;;;;;;8.35;2.42;;;7.80;80.20;;;;;;5072291;27;20398;-82
2022/01/20 10:11:06;;;;;;;16.48;3.58;;;7.60;81.50;;;;;;5068213;28;20055;-79
2022/01/20 10:13:38;;;;;;;11.38;3.33;;;7.70;81.70;;;;;;5084533;28;20025;-77
2022/01/20 10:16:14;;;;;;;10.95;3.08;;;7.80;81.90;;;;;;5051914;28;20446;-75
2022/01/20 10:18:52;;;;;;;10.80;3.08;;;8.00;80.80;;;;;;5067968;28;20025;-75
2022/01/20 10:21:28;;;;;;;13.00;3.03;;;8.10;80.40;;;;;;5055421;28;20112;-75
2022/01/20 10:24:02;;;;;;;8.15;2.88;;;8.10;79.60;;;;;;5051921;28;20043;-77
2022/01/20 10:26:28;;;;;;;8.23;3.30;;;8.20;80.10;;;;;;5051289;28;20060;-77
2022/01/20 10:29:06;;;;;;;15.45;3.20;;;8.20;80.10;;;;;;5052065;28;20029;-75
2022/01/20 10:31:43;;;;;;;7.93;3.15;;;8.20;80.20;;;;;;5084170;28;20056;-78
2022/01/20 10:34:30;;;;;;;10.65;3.10;;;8.20;80.50;;;;;;5083244;28;20391;-77
2022/01/20 10:37:12;;;;;;;12.10;2.97;;;8.20;79.70;;;;;;5084160;28;20017;-77
2022/01/20 10:39:42;;;;;;;10.88;3.25;;;8.30;79.80;;;;;;5052027;28;20082;-75
2022/01/20 10:42:10;;;;;;;9.18;3.17;;;8.20;79.10;;;;;;5056514;28;20025;-75
2022/01/20 10:44:46;;;;;;;8.90;3.50;;;8.10;79.70;;;;;;5070936;28;20517;-75
2022/01/20 10:47:14;;;;;;;13.43;3.80;;;8.00;79.80;;;;;;5071172;28;20029;-78
2022/01/20 10:49:40;;;;;;;13.35;3.70;;;8.00;79.50;;;;;;5071351;28;20047;-75
2022/01/20 10:52:08;;;;;;;11.13;4.50;;;8.20;80.30;;;;;;5056865;28;20511;-78
2022/01/20 10:54:52;;;;;;;8.13;3.40;;;8.20;80.30;;;;;;5050042;28;20114;-77
2022/01/20 10:57:25;;;;;;;10.40;3.55;;;8.30;80.00;;;;;;5065967;28;20033;-77
2022/01/20 10:59:57;;;;;;;8.80;3.20;;;8.30;80.10;;;;;;5070066;28;20086;-77
2022/01/20 11:02:27;;;;;;;12.07;3.08;;;8.40;79.90;;;;;;5055165;28;20638;-77
2022/01/20 11:04:53;;;;;;;13.25;4.72;;;8.40;79.70;;;;;;5049984;28;20029;-78
2022/01/20 11:07:19;;;;;;;8.10;4.30;;;8.40;79.90;;;;;;5068579;28;20135;-78
2022/01/20 11:09:50;;;;;;;10.57;3.53;;;8.50;80.10;;;;;;5071185;28;20025;-78
2022/01/20 11:12:17;;;;;;;6.35;3.08;;;8.50;79.70;;;;;;5103294;28;20016;-77
2022/01/20 11:14:45;;;;;;;6.93;4.18;;;8.60;79.10;;;;;;5069251;28;20040;-78
2022/01/20 11:17:23;;;;;;;12.05;4.15;;;8.50;79.00;;;;;;5069364;28;20021;-77
2022/01/20 11:19:50;;;;;;;13.68;4.40;;;8.70;79.50;;;;;;5058221;28;20074;-77
2022/01/20 11:22:17;;;;;;;8.18;3.92;;;8.80;78.90;;;;;;5055280;28;20025;-78
2022/01/20 11:24:43;;;;;;;11.70;3.60;;;8.70;79.10;;;;;;5057437;28;20028;-78
2022/01/20 11:27:13;;;;;;;6.18;3.35;;;8.60;78.40;;;;;;5057064;28;20478;-76
2022/01/20 11:29:50;;;;;;;8.90;3.88;;;8.70;78.30;;;;;;5056492;28;20082;-75
2022/01/20 11:32:27;;;;;;;7.28;2.97;;;8.70;78.50;;;;;;5037319;28;20056;-75
2022/01/20 11:35:00;;;;;;;8.75;3.15;;;8.70;77.40;;;;;;5037601;28;20383;-77
2022/01/20 11:37:28;;;;;;;8.27;2.78;;;8.70;78.10;;;;;;5051332;28;20030;-76
2022/01/20 11:40:06;;;;;;;11.15;3.33;;;8.70;77.40;;;;;;5037427;28;20064;-77
2022/01/20 11:42:32;;;;;;;12.65;3.67;;;8.80;77.00;;;;;;5077236;28;20051;-76
2022/01/20 11:44:57;;;;;;;8.65;3.10;;;9.00;77.10;;;;;;5055979;28;20040;-76
2022/01/20 11:47:33;;;;;;;8.98;2.70;;;9.20;75.70;;;;;;5057203;28;20086;-76
2022/01/20 11:49:59;;;;;;;7.10;2.35;;;9.30;75.50;;;;;;5051530;28;20026;-79
2022/01/20 11:52:26;;;;;;;5.30;2.55;;;9.30;75.30;;;;;;5037159;28;20033;-79
2022/01/20 11:54:52;;;;;;;12.30;3.08;;;9.30;75.70;;;;;;5035848;28;20033;-77
2022/01/20 11:57:30;;;;;;;9.75;2.85;;;9.30;76.30;;;;;;5068627;28;20033;-76
2022/01/20 12:00:15;;;;;;;6.70;2.42;;;9.20;76.50;;;;;;5036850;28;20152;-77
2022/01/20 12:02:40;;;;;;;9.95;2.95;;;9.00;75.60;;;;;;5036782;28;20017;-77
2022/01/20 12:05:33;;;;;;;10.23;2.40;;;8.80;75.90;;;;;;5036748;28;20029;-79
2022/01/20 12:08:07;;;;;;;6.50;2.53;;;8.90;76.20;;;;;;5043106;28;20050;-77
2022/01/20 12:10:32;;;;;;;4.18;2.25;;;9.10;75.80;;;;;;5037232;28;20029;-77
2022/01/20 12:13:09;;;;;;;12.27;2.70;;;9.20;75.40;;;;;;5055607;28;20025;-76
2022/01/20 12:15:46;;;;;;;7.07;2.20;;;9.40;74.50;;;;;;5053209;28;20090;-76
2022/01/20 12:18:13;;;;;;;8.20;2.35;;;9.30;73.70;;;;;;5036390;28;20108;-76
2022/01/20 12:20:39;;;;;;;7.75;2.78;;;9.00;74.10;;;;;;5052826;28;20025;-77
2022/01/20 12:23:05;;;;;;;9.18;2.55;;;8.80;75.50;;;;;;5036712;28;20022;-78
2022/01/20 12:25:33;;;;;;;8.25;2.70;;;8.80;75.30;;;;;;5036698;28;20025;-77
2022/01/20 12:28:17;;;;;;;9.15;2.53;;;9.10;74.70;;;;;;5068114;28;20033;-77
2022/01/20 12:30:47;;;;;;;7.30;2.65;;;9.40;73.90;;;;;;5034232;28;20047;-77
2022/01/20 12:33:15;;;;;;;8.00;2.25;;;9.70;73.70;;;;;;5036483;28;20032;-77
2022/01/20 12:35:45;;;;;;;6.65;2.42;;;9.50;74.00;;;;;;5034900;28;20095;-77
2022/01/20 12:38:26;;;;;;;6.80;2.65;;;9.40;73.50;;;;;;5035808;28;20032;-77
2022/01/20 12:41:10;;;;;;;12.93;2.97;;;9.30;73.90;;;;;;5036594;28;20033;-78
2022/01/20 12:44:07;;;;;;;10.80;2.55;;;9.30;74.70;;;;;;5042483;28;20017;-79
2022/01/20 12:46:37;;;;;;;7.93;2.03;;;9.30;73.80;;;;;;5036206;28;20052;-76
2022/01/20 12:49:04;;;;;;;5.25;2.72;;;9.10;74.20;;;;;;5034780;28;20028;-74
2022/01/20 12:51:44;;;;;;;5.53;2.72;;;9.00;74.30;;;;;;5051105;28;20065;-75
2022/01/20 12:54:17;;;;;;;7.53;2.80;;;8.80;74.90;;;;;;5034596;28;20025;-74
2022/01/20 12:56:45;;;;;;;7.50;2.90;;;8.80;75.10;;;;;;5036167;28;20100;-75
2022/01/20 12:59:17;;;;;;;9.85;2.83;;;8.70;74.80;;;;;;5067525;28;20025;-75
2022/01/20 13:01:45;;;;;;;6.95;2.85;;;8.50;75.50;;;;;;5035739;28;20074;-76
2022/01/20 13:04:14;;;;;;;6.18;3.05;;;8.70;75.30;;;;;;5035537;28;20461;-74
2022/01/20 13:06:50;;;;;;;11.85;3.35;;;9.00;74.30;;;;;;5035476;28;20053;-73
2022/01/20 13:09:18;;;;;;;11.30;2.83;;;9.20;73.90;;;;;;5080920;28;20029;-76
2022/01/20 13:11:55;;;;;;;9.93;3.30;;;9.50;74.00;;;;;;5084295;28;20029;-76
2022/01/20 13:14:39;;;;;;;7.78;2.55;;;9.90;72.10;;;;;;5034237;28;20033;-76
2022/01/20 13:17:07;;;;;;;5.85;2.45;;;9.90;71.50;;;;;;5035471;28;20465;-76
2022/01/20 13:19:38;;;;;;;7.80;2.30;;;9.70;71.60;;;;;;5043092;28;20048;-76
2022/01/20 13:22:07;;;;;;;6.93;2.42;;;9.50;72.20;;;;;;5087576;28;20083;-76
2022/01/20 13:24:35;;;;;;;8.48;2.63;;;9.40;73.00;;;;;;5051581;28;20021;-76
2022/01/20 13:27:05;;;;;;;8.13;3.20;;;9.60;73.00;;;;;;5035470;28;20033;-76
2022/01/20 13:29:45;;;;;;;7.40;2.53;;;9.80;72.50;;;;;;5035118;28;20061;-76
2022/01/20 13:32:11;;;;;;;6.93;2.60;;;9.70;71.30;;;;;;5035368;28;20033;-76
2022/01/20 13:34:37;;;;;;;9.00;2.50;;;9.40;71.40;;;;;;5036984;28;20091;-73
2022/01/20 13:37:04;;;;;;;8.15;2.80;;;9.30;72.40;;;;;;5055018;28;20032;-75
2022/01/20 13:39:35;;;;;;;8.93;3.55;;;9.10;73.00;;;;;;5050679;28;20499;-76
2022/01/20 13:42:09;;;;;;;10.60;2.78;;;9.10;72.90;;;;;;5037262;28;20082;-75
2022/01/20 13:47:19;;;;;;;7.22;2.47;;;9.20;72.20;;;;;;5054361;28;20088;-76
2022/01/20 13:49:54;;;;;;;10.18;2.70;;;9.20;72.30;;;;;;5034649;28;20555;-76
2022/01/20 13:52:22;;;;;;;9.20;2.88;;;9.20;72.40;;;;;;5034632;28;20140;-76
2022/01/20 13:54:52;;;;;;;9.25;3.17;;;9.00;73.00;;;;;;5034781;28;20140;-76
2022/01/20 13:57:19;;;;;;;9.95;3.25;;;9.00;73.30;;;;;;5035082;28;20693;-76
2022/01/20 14:00:03;;;;;;;10.18;3.40;;;9.20;73.10;;;;;;5035078;28;20753;-76
2022/01/20 14:02:29;;;;;;;11.60;3.58;;;9.40;71.90;;;;;;5034390;28;20017;-76
2022/01/20 14:04:55;;;;;;;8.05;2.70;;;9.50;71.20;;;;;;5083676;28;20025;-76
2022/01/20 14:07:21;;;;;;;5.90;2.47;;;9.70;71.40;;;;;;5054756;28;20790;-76
2022/01/20 14:09:49;;;;;;;4.53;2.40;;;9.80;70.40;;;;;;5054473;28;20033;-73
2022/01/20 14:12:15;;;;;;;3.40;2.33;;;9.70;68.40;;;;;;5047192;28;20060;-76
2022/01/20 14:14:41;;;;;;;6.82;2.33;;;9.80;68.60;;;;;;5066710;28;20030;-76
2022/01/20 14:17:20;;;;;;;6.55;2.25;;;9.80;68.40;;;;;;5034874;28;20025;-76
2022/01/20 14:19:53;;;;;;;3.63;1.95;;;9.80;67.80;;;;;;5042501;28;20028;-76
2022/01/20 14:22:19;;;;;;;6.32;1.90;;;9.70;68.10;;;;;;5077383;28;20030;-76
2022/01/20 14:24:45;;;;;;;3.25;1.98;;;9.60;67.10;;;;;;5034699;28;20056;-76
2022/01/20 14:27:14;;;;;;;5.20;2.17;;;9.30;66.60;;;;;;5038852;28;20403;-76
2022/01/20 14:29:42;;;;;;;7.70;2.08;;;9.30;66.90;;;;;;5054498;28;20021;-76
2022/01/20 14:32:10;;;;;;;5.07;2.10;;;9.40;67.10;;;;;;5054635;28;20522;-76
2022/01/20 14:34:35;;;;;;;6.63;2.65;;;9.60;66.20;;;;;;5054460;28;20028;-76
2022/01/20 14:37:02;;;;;;;8.50;2.42;;;9.70;66.50;;;;;;5049103;28;20484;-76
2022/01/20 14:39:27;;;;;;;5.75;2.83;;;9.80;66.40;;;;;;5034524;28;20029;-76
2022/01/20 14:41:53;;;;;;;10.23;2.83;;;9.80;67.00;;;;;;5037035;28;20029;-76
2022/01/20 14:44:19;;;;;;;8.35;2.92;;;10.00;66.70;;;;;;5053274;28;20048;-76
2022/01/20 14:46:44;;;;;;;4.07;2.03;;;9.80;67.60;;;;;;5086505;28;20087;-76
2022/01/20 14:49:10;;;;;;;3.35;2.20;;;9.60;67.20;;;;;;5041335;28;20574;-75
2022/01/20 14:51:36;;;;;;;7.30;2.17;;;9.40;67.60;;;;;;5034103;28;20034;-76
2022/01/20 14:54:01;;;;;;;5.35;2.30;;;9.30;67.90;;;;;;5036179;28;20488;-75
2022/01/20 14:56:27;;;;;;;3.47;2.08;;;9.20;68.40;;;;;;5038030;28;20041;-76
2022/01/20 14:58:53;;;;;;;2.42;1.85;;;9.10;68.50;;;;;;5069828;28;20036;-76
2022/01/20 15:01:18;;;;;;;10.73;2.10;;;9.00;68.90;;;;;;5037829;28;20033;-75
2022/01/20 15:03:44;;;;;;;5.78;2.15;;;9.20;69.50;;;;;;5037965;28;20033;-75
2022/01/20 15:06:10;;;;;;;9.15;2.72;;;9.20;69.40;;;;;;5037957;28;20099;-77
2022/01/20 15:08:35;;;;;;;6.47;2.20;;;9.20;69.70;;;;;;5037563;28;20037;-76
2022/01/20 15:11:01;;;;;;;6.07;2.28;;;9.10;69.20;;;;;;5038667;28;20390;-76
2022/01/20 15:13:27;;;;;;;5.50;2.50;;;9.10;69.80;;;;;;5037543;28;20033;-76
2022/01/20 15:15:53;;;;;;;5.93;2.70;;;9.10;70.20;;;;;;5036639;28;20120;-76
2022/01/20 15:18:19;;;;;;;4.63;2.28;;;9.20;70.10;;;;;;5037571;28;20032;-76
2022/01/20 15:20:45;;;;;;;4.35;1.98;;;9.10;69.50;;;;;;5055235;28;20025;-76
2022/01/20 15:23:10;;;;;;;4.57;2.05;;;9.00;69.50;;;;;;5056148;28;20018;-75
2022/01/20 15:25:36;;;;;;;4.30;2.13;;;9.10;69.30;;;;;;5053904;28;20435;-73
2022/01/20 15:28:02;;;;;;;6.72;2.28;;;9.10;69.70;;;;;;5037922;28;20032;-75
2022/01/20 15:30:29;;;;;;;7.80;2.67;;;9.10;69.40;;;;;;5042671;28;20036;-76
2022/01/20 15:32:55;;;;;;;5.50;2.25;;;9.10;70.10;;;;;;5039988;28;20120;-75
2022/01/20 15:35:21;;;;;;;7.10;2.38;;;9.10;69.60;;;;;;5037131;28;20040;-74
2022/01/20 15:37:47;;;;;;;4.03;2.10;;;9.00;70.20;;;;;;5035497;28;20507;-75
2022/01/20 15:40:16;;;;;;;10.23;3.00;;;8.90;70.10;;;;;;5037584;28;20100;-75
2022/01/20 15:42:43;;;;;;;8.30;2.30;;;8.80;71.00;;;;;;5045167;28;20028;-75
2022/01/20 15:45:09;;;;;;;9.50;3.08;;;8.80;71.20;;;;;;5048053;28;20025;-75
2022/01/20 15:47:36;;;;;;;3.75;2.22;;;8.70;70.80;;;;;;5055930;28;20028;-75
2022/01/20 15:50:08;;;;;;;7.20;2.50;;;8.70;71.20;;;;;;5055750;28;20063;-75
2022/01/20 15:52:34;;;;;;;6.35;2.00;;;8.50;71.20;;;;;;5053035;28;20156;-75
2022/01/20 15:55:00;;;;;;;9.05;2.33;;;8.50;70.60;;;;;;5055749;28;20064;-75
2022/01/20 15:57:25;;;;;;;4.97;2.13;;;8.40;70.80;;;;;;5053075;28;20039;-74
2022/01/20 15:59:51;;;;;;;4.53;2.30;;;8.40;70.80;;;;;;5055769;28;20055;-75
2022/01/20 16:02:17;;;;;;;4.82;2.17;;;8.40;70.70;;;;;;5055444;28;20021;-73
2022/01/20 16:04:42;;;;;;;7.03;1.98;;;8.30;70.10;;;;;;5053174;28;20024;-73
2022/01/20 16:07:08;;;;;;;5.32;2.17;;;8.20;69.90;;;;;;5045477;28;20163;-73
2022/01/20 16:09:34;;;;;;;7.57;2.85;;;8.20;70.10;;;;;;5053396;28;20035;-73
2022/01/20 16:11:59;;;;;;;9.88;2.63;;;8.00;70.40;;;;;;5055662;28;20029;-73
2022/01/20 16:14:25;;;;;;;6.72;2.33;;;7.90;70.00;;;;;;5054057;28;20029;-73
2022/01/20 16:16:51;;;;;;;8.57;2.53;;;7.90;70.70;;;;;;5036571;28;20472;-73
2022/01/20 16:19:17;;;;;;;4.32;1.90;;;7.90;70.50;;;;;;5042670;28;20059;-72
2022/01/20 16:21:42;;;;;;;10.45;2.60;;;7.90;70.50;;;;;;5054669;28;20021;-73
2022/01/20 16:24:10;;;;;;;5.78;2.50;;;7.90;71.00;;;;;;5054742;28;20037;-73
2022/01/20 16:26:36;;;;;;;10.00;3.08;;;8.00;70.80;;;;;;5059031;28;20029;-72
2022/01/20 16:29:02;;;;;;;9.23;2.95;;;8.00;71.20;;;;;;5055962;28;20023;-73
2022/01/20 16:31:29;;;;;;;6.60;3.15;;;8.00;71.00;;;;;;5053774;28;20044;-72
2022/01/20 16:33:55;;;;;;;8.20;2.63;;;8.00;71.30;;;;;;5055703;28;20032;-72
2022/01/20 16:36:21;;;;;;;6.80;2.55;;;8.00;71.50;;;;;;5045051;28;20847;-73
2022/01/20 16:38:47;;;;;;;6.05;2.00;;;8.00;71.30;;;;;;5036124;28;20033;-73
2022/01/20 16:41:12;;;;;;;6.00;2.00;;;8.00;71.50;;;;;;5035735;28;20052;-73
2022/01/20 16:43:38;;;;;;;6.10;2.10;;;7.90;72.00;;;;;;5052989;28;20435;-73
2022/01/20 16:46:04;;;;;;;5.80;2.35;;;7.80;72.30;;;;;;5055364;28;20036;-72
2022/01/20 16:48:31;;;;;;;7.82;2.85;;;7.70;73.10;;;;;;5044621;28;20026;-72
2022/01/20 16:50:58;;;;;;;7.13;2.40;;;7.80;73.00;;;;;;5034592;28;20025;-73
2022/01/20 16:53:28;;;;;;;10.15;2.38;;;7.70;72.50;;;;;;5040147;28;20032;-73
2022/01/20 16:55:54;;;;;;;7.87;2.13;;;7.70;72.40;;;;;;5071376;28;20029;-73
2022/01/20 16:58:20;;;;;;;4.82;2.20;;;7.70;71.10;;;;;;5051219;28;20029;-73
2022/01/20 17:00:46;;;;;;;6.75;2.10;;;7.60;71.00;;;;;;5054116;28;20033;-73
2022/01/20 17:03:13;;;;;;;7.25;2.88;;;7.70;70.50;;;;;;5047777;28;20032;-71
2022/01/20 17:05:44;;;;;;;5.97;2.63;;;7.80;70.60;;;;;;5038278;28;20500;-72
2022/01/20 17:08:10;;;;;;;7.45;2.33;;;7.80;69.50;;;;;;5048580;28;20123;-71
2022/01/20 17:10:36;;;;;;;6.75;2.33;;;7.80;69.70;;;;;;5045694;28;20532;-71
2022/01/20 17:13:02;;;;;;;3.78;2.10;;;7.80;69.90;;;;;;5055063;28;20041;-72
2022/01/20 17:15:28;;;;;;;12.18;3.25;;;7.80;69.80;;;;;;5049849;28;20423;-72
2022/01/20 17:17:54;;;;;;;5.82;2.10;;;7.80;69.70;;;;;;5066322;28;20665;-71
2022/01/20 17:20:21;;;;;;;5.55;2.10;;;7.80;70.10;;;;;;5059798;28;20058;-72
2022/01/20 17:22:46;;;;;;;9.05;2.67;;;7.80;70.00;;;;;;5052864;28;20448;-73
2022/01/20 17:25:12;;;;;;;6.15;2.13;;;7.80;70.20;;;;;;5035124;28;20071;-71
2022/01/20 17:27:38;;;;;;;11.52;2.63;;;7.70;70.00;;;;;;5033878;28;20036;-71
2022/01/20 17:30:05;;;;;;;5.50;2.13;;;7.70;70.20;;;;;;5054213;28;20021;-71
2022/01/20 17:32:32;;;;;;;5.43;2.42;;;7.60;70.40;;;;;;5050230;28;20082;-72
2022/01/20 17:34:57;;;;;;;5.25;1.83;;;7.60;70.80;;;;;;5045901;28;20184;-71
2022/01/20 17:37:23;;;;;;;12.73;2.85;;;7.60;70.90;;;;;;5046619;28;20037;-72
2022/01/20 17:39:48;;;;;;;9.00;2.90;;;7.50;71.00;;;;;;5052980;28;20110;-73
2022/01/20 17:42:14;;;;;;;5.57;2.63;;;7.40;71.20;;;;;;5053720;28;20051;-73
2022/01/20 17:44:40;;;;;;;8.85;3.88;;;7.30;71.60;;;;;;5069075;28;20025;-72
2022/01/20 17:47:06;;;;;;;7.88;3.15;;;7.20;72.10;;;;;;5052398;28;20028;-73
2022/01/20 17:49:31;;;;;;;6.13;3.40;;;7.10;72.40;;;;;;5052827;28;20797;-72
2022/01/20 17:51:57;;;;;;;12.25;3.80;;;7.10;72.70;;;;;;5054024;28;20029;-72